Orto / Ocaso: 06:02 / 18:18 UTC (Datos para LEAX 19-09-2018)

[fuente: ADDS]

METAR:


LEMG 190900Z 30001KT 9999 FEW030 25/21 Q1020 NOSIG =
TAF LEMG 190500Z 1906/2006 28004KT 9999 SCT010 TX28/1912Z TN21/2006Z PROB30 TEMPO 1906/1909 4000 BR BKN010 BECMG 1908/1910 13008KT BECMG 1918/1921 VRB02KT PROB40 TEMPO 1922/2006 4000 BR BKN008 LEGR 190900Z 00000KT 9999 FEW055 24/18 Q1022 =
TAF LEGR 190800Z 1909/2009 VRB03KT 9999 FEW040 TX31/1915Z TN16/2006Z PROB40 TEMPO 1913/1919 SCT035CB PROB30 TEMPO 1914/1919 VRB15G25KT 4000 TSRA SCT030CB LEZL 190900Z 18001KT CAVOK 26/21 Q1019 NOSIG =
TAF LEZL 190800Z 1909/2009 04004KT 9999 FEW040 TX34/1915Z TN20/2006Z LEAM 190900Z 21004KT 170V250 9999 FEW020 27/22 Q1019 =
TAF LEAM 190800Z 1909/2009 03004KT 9999 FEW040 TX30/1912Z TN23/2006Z BECMG 1909/1911 20010KT BECMG 1917/1920 35004KT LEBA 190900Z 06006KT 020V110 CAVOK 25/17 Q1019 =
TAF LEBA 190800Z 1909/1918 07005KT 9999 FEW040 PROB40 TEMPO 1913/1918 FEW040CB LEJR 190900Z VRB02KT CAVOK 26/20 Q1019 =
TAF LEJR 190500Z 1906/2006 14004KT 9999 FEW030 TX34/1915Z TN18/1906Z PROB40 TEMPO 1906/1908 4000 BR BECMG 1913/1915 25010KT BECMG 1918/1921 18004KT PROB40 TEMPO 2002/2006 4000 BR GEML 190900Z 11004KT 060V180 9999 FEW008 26/22 Q1020 =
TAF GEML 190800Z 1909/2009 09004KT 9999 SCT010 SCT015 TX27/1915Z TN23/2005Z TEMPO 1909/1910 BKN008 PROB30 TEMPO 1910/2003 BKN010 TEMPO 1922/2008 BKN008 LXGB 190850Z 04007KT 9999 FEW008 BKN016 25/21 Q1019 NOSIG =
TAF LXGB 190722Z 1909/1918 09008KT 9999 FEW012 SCT018 TEMPO 1909/1910 7000 HZ SCT012 BECMG 1910/1912 FEW020

TAFOR:


TAF LEMG 190500Z 1906/2006 28004KT 9999 SCT010 TX28/1912Z TN21/2006Z PROB30 TEMPO 1906/1909 4000 BR BKN010 BECMG 1908/1910 13008KT BECMG 1918/1921 VRB02KT PROB40 TEMPO 1922/2006 4000 BR BKN008 =
TAF LEGR 190800Z 1909/2009 VRB03KT 9999 FEW040 TX31/1915Z TN16/2006Z PROB40 TEMPO 1913/1919 SCT035CB PROB30 TEMPO 1914/1919 VRB15G25KT 4000 TSRA SCT030CB =
TAF LEZL 190800Z 1909/2009 04004KT 9999 FEW040 TX34/1915Z TN20/2006Z =
TAF LEAM 190800Z 1909/2009 03004KT 9999 FEW040 TX30/1912Z TN23/2006Z BECMG 1909/1911 20010KT BECMG 1917/1920 35004KT =
TAF LEBA 190800Z 1909/1918 07005KT 9999 FEW040 PROB40 TEMPO 1913/1918 FEW040CB =
TAF LEJR 190500Z 1906/2006 14004KT 9999 FEW030 TX34/1915Z TN18/1906Z PROB40 TEMPO 1906/1908 4000 BR BECMG 1913/1915 25010KT BECMG 1918/1921 18004KT PROB40 TEMPO 2002/2006 4000 BR =
TAF GEML 190800Z 1909/2009 09004KT 9999 SCT010 SCT015 TX27/1915Z TN23/2005Z TEMPO 1909/1910 BKN008 PROB30 TEMPO 1910/2003 BKN010 TEMPO 1922/2008 BKN008 =
TAF LXGB 190722Z 1909/1918 09008KT 9999 FEW012 SCT018 TEMPO 1909/1910 7000 HZ SCT012 BECMG 1910/1912 FEW020 =

Recuerde que, aunque regularmente actualizada, la información meteorológica aquí presentada no debe ser utilizada para la planificación de vuelos. Si lo desea, puede consultar la información meteorológica adecuada, tanto de aeródromos como en ruta, por las vías oficialmente establecidas en la legislación -> AQUí